createdAt,value
2023-01-23T00:00:58.320Z,1030.59
2023-01-23T00:01:58.313Z,1030.57
2023-01-23T00:02:58.299Z,1030.56
2023-01-23T00:03:58.359Z,1030.58
2023-01-23T00:04:58.282Z,1030.54
2023-01-23T00:05:58.264Z,1030.56
2023-01-23T00:06:58.256Z,1030.57
2023-01-23T00:07:58.239Z,1030.57
2023-01-23T00:08:58.254Z,1030.59
2023-01-23T00:09:58.334Z,1030.54
2023-01-23T00:10:58.225Z,1030.56
2023-01-23T00:11:58.198Z,1030.56
2023-01-23T00:12:58.182Z,1030.58
2023-01-23T00:13:58.174Z,1030.59
2023-01-23T00:14:58.160Z,1030.60
2023-01-23T00:15:58.188Z,1030.64
2023-01-23T00:16:58.176Z,1030.66
2023-01-23T00:17:58.129Z,1030.64
2023-01-23T00:18:58.116Z,1030.65
2023-01-23T00:19:58.103Z,1030.67
2023-01-23T00:20:58.096Z,1030.68
2023-01-23T00:21:58.085Z,1030.67
2023-01-23T00:22:58.077Z,1030.66
2023-01-23T00:23:58.083Z,1030.65
2023-01-23T00:24:58.050Z,1030.65
2023-01-23T00:25:58.147Z,1030.63
2023-01-23T00:26:58.023Z,1030.62
2023-01-23T00:27:58.013Z,1030.63
2023-01-23T00:28:58.010Z,1030.61
2023-01-23T00:29:57.995Z,1030.61
2023-01-23T00:30:58.108Z,1030.60
2023-01-23T00:31:58.048Z,1030.61
2023-01-23T00:32:57.965Z,1030.58
2023-01-23T00:33:57.956Z,1030.59
2023-01-23T00:34:57.965Z,1030.61
2023-01-23T00:35:57.932Z,1030.57
2023-01-23T00:36:57.923Z,1030.56
2023-01-23T00:37:58.011Z,1030.58
2023-01-23T00:38:57.890Z,1030.62
2023-01-23T00:39:57.893Z,1030.63
2023-01-23T00:40:57.871Z,1030.63
2023-01-23T00:41:57.968Z,1030.65
2023-01-23T00:42:57.841Z,1030.64
2023-01-23T00:43:57.834Z,1030.68
2023-01-23T00:44:57.827Z,1030.67
2023-01-23T00:45:57.818Z,1030.68
2023-01-23T00:46:57.809Z,1030.69
2023-01-23T00:47:57.791Z,1030.67
2023-01-23T00:48:57.783Z,1030.66
2023-01-23T00:49:57.760Z,1030.63
2023-01-23T00:50:57.789Z,1030.68
2023-01-23T00:51:57.739Z,1030.72
2023-01-23T00:52:57.750Z,1030.72
2023-01-23T00:53:57.719Z,1030.73
2023-01-23T00:54:57.734Z,1030.77
2023-01-23T00:55:57.693Z,1030.73
2023-01-23T00:56:57.681Z,1030.78
2023-01-23T00:57:57.787Z,1030.75
2023-01-23T00:58:57.665Z,1030.78
2023-01-23T00:59:57.650Z,1030.78
2023-01-23T01:00:57.651Z,1030.76
2023-01-23T01:01:57.713Z,1030.78
2023-01-23T01:02:57.673Z,1030.77
2023-01-23T01:03:57.601Z,1030.73
2023-01-23T01:04:57.600Z,1030.81
2023-01-23T01:05:57.586Z,1030.82
2023-01-23T01:06:57.577Z,1030.82
2023-01-23T01:07:57.554Z,1030.83
2023-01-23T01:08:57.563Z,1030.90
2023-01-23T01:09:57.541Z,1030.90
2023-01-23T01:10:57.558Z,1030.89
2023-01-23T01:11:57.512Z,1030.89
2023-01-23T01:12:57.615Z,1030.93
2023-01-23T01:13:57.599Z,1030.90
2023-01-23T01:14:57.480Z,1030.91
2023-01-23T01:15:57.549Z,1030.93
2023-01-23T01:16:57.459Z,1030.97
2023-01-23T01:17:57.443Z,1030.95
2023-01-23T01:18:57.447Z,1030.92
2023-01-23T01:19:57.417Z,1030.94
2023-01-23T01:20:57.426Z,1030.96
2023-01-23T01:21:57.394Z,1030.95
2023-01-23T01:22:57.417Z,1030.96
2023-01-23T01:23:57.371Z,1030.97
2023-01-23T01:24:57.365Z,1030.98
2023-01-23T01:25:57.349Z,1030.96
2023-01-23T01:26:57.338Z,1030.97
2023-01-23T01:27:57.344Z,1030.97
2023-01-23T01:28:57.336Z,1030.97
2023-01-23T01:29:57.415Z,1030.95
2023-01-23T01:30:57.410Z,1030.92
2023-01-23T01:31:57.325Z,1030.99
2023-01-23T01:32:57.268Z,1031.01
2023-01-23T01:33:57.266Z,1031.02
2023-01-23T01:34:57.252Z,1031.04
2023-01-23T01:35:57.246Z,1031.03
2023-01-23T01:36:57.226Z,1031.04
2023-01-23T01:37:57.211Z,1031.06
2023-01-23T01:38:57.199Z,1031.06
2023-01-23T01:39:57.193Z,1031.11
2023-01-23T01:40:57.185Z,1031.12
2023-01-23T01:41:57.171Z,1031.14
2023-01-23T01:42:57.176Z,1031.17
2023-01-23T01:43:57.206Z,1031.18
2023-01-23T01:44:57.140Z,1031.17
2023-01-23T01:45:57.233Z,1031.16
2023-01-23T01:46:57.194Z,1031.19
2023-01-23T01:47:57.114Z,1031.16
2023-01-23T01:48:57.085Z,1031.17
2023-01-23T01:49:57.083Z,1031.20
2023-01-23T01:50:57.121Z,1031.23
2023-01-23T01:51:57.058Z,1031.23
2023-01-23T01:52:57.046Z,1031.23
2023-01-23T01:53:57.027Z,1031.20
2023-01-23T01:54:57.021Z,1031.18
2023-01-23T01:55:57.014Z,1031.15
2023-01-23T01:56:56.998Z,1031.18
2023-01-23T01:57:56.982Z,1031.23
2023-01-23T01:58:56.993Z,1031.18
2023-01-23T01:59:56.960Z,1031.18
2023-01-23T02:00:57.027Z,1031.21
2023-01-23T02:01:57.077Z,1031.22
2023-01-23T02:02:56.925Z,1031.20
2023-01-23T02:03:56.919Z,1031.18
2023-01-23T02:04:56.923Z,1031.20
2023-01-23T02:05:56.892Z,1031.18
2023-01-23T02:06:56.879Z,1031.15
2023-01-23T02:07:56.868Z,1031.23
2023-01-23T02:08:56.859Z,1031.21
2023-01-23T02:09:56.846Z,1031.18
2023-01-23T02:10:56.844Z,1031.23
2023-01-23T02:11:56.823Z,1031.25
2023-01-23T02:12:56.819Z,1031.22
2023-01-23T02:13:56.796Z,1031.23
2023-01-23T02:14:56.789Z,1031.21
2023-01-23T02:15:56.837Z,1031.23
2023-01-23T02:16:56.771Z,1031.19
2023-01-23T02:17:56.872Z,1031.20
2023-01-23T02:18:56.749Z,1031.17
2023-01-23T02:19:56.732Z,1031.21
2023-01-23T02:20:56.719Z,1031.20
2023-01-23T02:21:56.709Z,1031.25
2023-01-23T02:22:56.727Z,1031.24
2023-01-23T02:23:56.692Z,1031.21
2023-01-23T02:24:56.681Z,1031.24
2023-01-23T02:25:56.662Z,1031.18
2023-01-23T02:26:56.652Z,1031.19
2023-01-23T02:27:56.651Z,1031.20
2023-01-23T02:28:56.653Z,1031.14
2023-01-23T02:29:56.620Z,1031.18
2023-01-23T02:30:56.641Z,1031.18
2023-01-23T02:31:56.755Z,1031.20
2023-01-23T02:32:56.583Z,1031.16
2023-01-23T02:33:56.688Z,1031.20
2023-01-23T02:34:56.577Z,1031.14
2023-01-23T02:35:56.552Z,1031.16
2023-01-23T02:36:56.547Z,1031.13
2023-01-23T02:37:56.529Z,1031.14
2023-01-23T02:38:56.519Z,1031.16
2023-01-23T02:39:56.515Z,1031.17
2023-01-23T02:40:56.516Z,1031.22
2023-01-23T02:41:56.483Z,1031.25
2023-01-23T02:42:56.487Z,1031.30
2023-01-23T02:43:56.458Z,1031.33
2023-01-23T02:44:56.446Z,1031.33
2023-01-23T02:45:56.464Z,1031.34
2023-01-23T02:46:56.429Z,1031.39
2023-01-23T02:47:56.420Z,1031.43
2023-01-23T02:48:56.404Z,1031.42
2023-01-23T02:49:56.508Z,1031.39
2023-01-23T02:50:56.394Z,1031.40
2023-01-23T02:51:56.379Z,1031.45
2023-01-23T02:52:56.362Z,1031.47
2023-01-23T02:53:56.345Z,1031.44
2023-01-23T02:54:56.335Z,1031.45
2023-01-23T02:55:56.325Z,1031.49
2023-01-23T02:56:56.313Z,1031.53
2023-01-23T02:57:56.302Z,1031.51
2023-01-23T02:58:56.321Z,1031.52
2023-01-23T02:59:56.278Z,1031.54
2023-01-23T03:00:56.321Z,1031.56
2023-01-23T03:01:56.299Z,1031.58
2023-01-23T03:02:56.241Z,1031.57
2023-01-23T03:03:56.228Z,1031.58
2023-01-23T03:04:56.228Z,1031.62
2023-01-23T03:05:56.320Z,1031.58
2023-01-23T03:06:56.205Z,1031.59
2023-01-23T03:07:56.189Z,1031.61
2023-01-23T03:08:56.184Z,1031.56
2023-01-23T03:09:56.162Z,1031.64
2023-01-23T03:10:56.178Z,1031.58
2023-01-23T03:11:56.147Z,1031.58
2023-01-23T03:12:56.127Z,1031.57
2023-01-23T03:13:56.117Z,1031.57
2023-01-23T03:14:56.107Z,1031.58
2023-01-23T03:15:56.092Z,1031.57
2023-01-23T03:16:56.086Z,1031.61
2023-01-23T03:17:56.071Z,1031.61
2023-01-23T03:18:56.057Z,1031.63
2023-01-23T03:19:56.054Z,1031.67
2023-01-23T03:20:56.037Z,1031.60
2023-01-23T03:21:56.139Z,1031.62
2023-01-23T03:22:56.018Z,1031.65
2023-01-23T03:23:56.003Z,1031.66
2023-01-23T03:24:55.991Z,1031.68
2023-01-23T03:25:55.978Z,1031.69
2023-01-23T03:26:55.969Z,1031.69
2023-01-23T03:27:55.959Z,1031.70
2023-01-23T03:28:55.974Z,1031.66
2023-01-23T03:29:55.935Z,1031.65
2023-01-23T03:30:55.938Z,1031.67
2023-01-23T03:31:55.975Z,1031.66
2023-01-23T03:32:55.897Z,1031.66
2023-01-23T03:33:55.886Z,1031.67
2023-01-23T03:34:55.928Z,1031.71
2023-01-23T03:35:55.864Z,1031.76
2023-01-23T03:36:55.850Z,1031.79
2023-01-23T03:37:55.955Z,1031.77
2023-01-23T03:38:55.829Z,1031.79
2023-01-23T03:39:55.817Z,1031.82
2023-01-23T03:40:55.823Z,1031.82
2023-01-23T03:41:55.797Z,1031.84
2023-01-23T03:42:55.785Z,1031.90
2023-01-23T03:43:55.771Z,1031.90
2023-01-23T03:44:55.769Z,1031.88
2023-01-23T03:45:55.806Z,1031.88
2023-01-23T03:46:55.758Z,1031.89
2023-01-23T03:47:55.727Z,1031.94
2023-01-23T03:48:55.716Z,1031.93
2023-01-23T03:49:55.704Z,1031.94
2023-01-23T03:50:55.741Z,1031.91
2023-01-23T03:51:55.682Z,1031.96
2023-01-23T03:52:55.675Z,1031.93
2023-01-23T03:53:55.779Z,1031.93
2023-01-23T03:54:55.646Z,1031.94
2023-01-23T03:55:55.636Z,1031.93
2023-01-23T03:56:55.626Z,1031.95
2023-01-23T03:57:55.615Z,1031.96
2023-01-23T03:58:55.607Z,1032.00
2023-01-23T03:59:55.592Z,1032.00
2023-01-23T04:00:55.616Z,1032.00
2023-01-23T04:01:55.573Z,1032.02
2023-01-23T04:02:55.654Z,1032.03
2023-01-23T04:03:55.550Z,1032.07
2023-01-23T04:04:55.540Z,1032.06
2023-01-23T04:05:55.523Z,1032.07
2023-01-23T04:06:55.509Z,1032.17
2023-01-23T04:07:55.502Z,1032.05
2023-01-23T04:08:55.488Z,1032.05
2023-01-23T04:09:55.592Z,1032.04
2023-01-23T04:10:55.493Z,1032.07
2023-01-23T04:11:55.453Z,1032.07
2023-01-23T04:12:55.443Z,1032.08
2023-01-23T04:13:55.428Z,1032.07
2023-01-23T04:14:55.422Z,1032.09
2023-01-23T04:15:55.415Z,1032.09
2023-01-23T04:16:55.434Z,1032.10
2023-01-23T04:17:55.384Z,1032.09
2023-01-23T04:18:55.373Z,1032.08
2023-01-23T04:19:55.367Z,1032.08
2023-01-23T04:20:55.349Z,1032.14
2023-01-23T04:21:55.340Z,1032.12
2023-01-23T04:22:55.355Z,1032.13
2023-01-23T04:23:55.324Z,1032.12
2023-01-23T04:24:55.305Z,1032.12
2023-01-23T04:25:55.408Z,1032.11
2023-01-23T04:26:55.304Z,1032.11
2023-01-23T04:27:55.276Z,1032.11
2023-01-23T04:28:55.268Z,1032.14
2023-01-23T04:29:55.248Z,1032.14
2023-01-23T04:30:55.367Z,1032.14
2023-01-23T04:31:55.224Z,1032.11
2023-01-23T04:32:55.215Z,1032.13
2023-01-23T04:33:55.212Z,1032.10
2023-01-23T04:34:55.243Z,1032.10
2023-01-23T04:35:55.178Z,1032.13
2023-01-23T04:36:55.178Z,1032.10
2023-01-23T04:37:55.156Z,1032.11
2023-01-23T04:38:55.156Z,1032.13
2023-01-23T04:39:55.135Z,1032.21
2023-01-23T04:40:55.126Z,1032.16
2023-01-23T04:41:55.225Z,1032.17
2023-01-23T04:42:55.098Z,1032.16
2023-01-23T04:43:55.091Z,1032.22
2023-01-23T04:44:55.076Z,1032.18
2023-01-23T04:45:55.115Z,1032.20
2023-01-23T04:46:55.128Z,1032.19
2023-01-23T04:47:55.048Z,1032.24
2023-01-23T04:48:55.041Z,1032.28
2023-01-23T04:49:55.020Z,1032.26
2023-01-23T04:50:55.049Z,1032.30
2023-01-23T04:51:54.997Z,1032.26
2023-01-23T04:52:55.001Z,1032.24
2023-01-23T04:53:54.978Z,1032.27
2023-01-23T04:54:54.961Z,1032.27
2023-01-23T04:55:54.955Z,1032.26
2023-01-23T04:56:54.940Z,1032.25
2023-01-23T04:57:55.046Z,1032.31
2023-01-23T04:58:54.923Z,1032.32
2023-01-23T04:59:54.908Z,1032.31
2023-01-23T05:00:54.991Z,1032.31
2023-01-23T05:01:54.887Z,1032.32
2023-01-23T05:02:54.871Z,1032.32
2023-01-23T05:03:54.859Z,1032.35
2023-01-23T05:04:54.856Z,1032.45
2023-01-23T05:05:54.838Z,1032.34
2023-01-23T05:06:54.829Z,1032.30
2023-01-23T05:07:54.818Z,1032.33
2023-01-23T05:08:54.801Z,1032.34
2023-01-23T05:09:54.789Z,1032.31
2023-01-23T05:10:54.792Z,1032.28
2023-01-23T05:11:54.773Z,1032.30
2023-01-23T05:12:54.763Z,1032.30
2023-01-23T05:13:54.858Z,1032.27
2023-01-23T05:14:54.733Z,1032.28
2023-01-23T05:15:54.741Z,1032.28
2023-01-23T05:16:54.739Z,1032.25
2023-01-23T05:17:54.699Z,1032.24
2023-01-23T05:18:54.689Z,1032.25
2023-01-23T05:19:54.677Z,1032.25
2023-01-23T05:20:54.667Z,1032.26
2023-01-23T05:21:54.653Z,1032.27
2023-01-23T05:22:54.652Z,1032.26
2023-01-23T05:23:54.632Z,1032.28
2023-01-23T05:24:54.665Z,1032.29
2023-01-23T05:25:54.607Z,1032.23
2023-01-23T05:26:54.614Z,1032.20
2023-01-23T05:27:54.590Z,1032.26
2023-01-23T05:28:54.591Z,1032.24
2023-01-23T05:29:54.584Z,1032.23
2023-01-23T05:30:54.639Z,1032.27
2023-01-23T05:31:54.542Z,1032.26
2023-01-23T05:32:54.531Z,1032.25
2023-01-23T05:33:54.530Z,1032.24
2023-01-23T05:34:54.526Z,1032.26
2023-01-23T05:35:54.509Z,1032.26
2023-01-23T05:36:54.490Z,1032.28
2023-01-23T05:37:54.472Z,1032.29
2023-01-23T05:38:54.459Z,1032.28
2023-01-23T05:39:54.449Z,1032.27
2023-01-23T05:40:54.458Z,1032.31
2023-01-23T05:41:54.427Z,1032.31
2023-01-23T05:42:54.417Z,1032.31
2023-01-23T05:43:54.402Z,1032.33
2023-01-23T05:44:54.396Z,1032.35
2023-01-23T05:45:54.545Z,1032.34
2023-01-23T05:46:54.378Z,1032.32
2023-01-23T05:47:54.362Z,1032.33
2023-01-23T05:48:54.357Z,1032.34
2023-01-23T05:49:54.337Z,1032.30
2023-01-23T05:50:54.357Z,1032.34
2023-01-23T05:51:54.315Z,1032.36
2023-01-23T05:52:54.333Z,1032.39
2023-01-23T05:53:54.288Z,1032.41
2023-01-23T05:54:54.277Z,1032.48
2023-01-23T05:55:54.267Z,1032.45
2023-01-23T05:56:54.256Z,1032.49
2023-01-23T05:57:54.265Z,1032.50
2023-01-23T05:58:54.253Z,1032.52
2023-01-23T05:59:54.221Z,1032.54
2023-01-23T06:00:54.215Z,1032.51
2023-01-23T06:01:54.313Z,1032.54
2023-01-23T06:02:54.241Z,1032.55
2023-01-23T06:03:54.238Z,1032.52
2023-01-23T06:04:55.790Z,1032.59
2023-01-23T06:05:54.153Z,1032.62
2023-01-23T06:06:54.145Z,1032.65
2023-01-23T06:07:54.128Z,1032.77
2023-01-23T06:08:54.117Z,1032.73
2023-01-23T06:09:54.120Z,1032.72
2023-01-23T06:10:54.103Z,1032.75
2023-01-23T06:11:54.093Z,1032.74
2023-01-23T06:12:54.074Z,1032.72
2023-01-23T06:13:54.061Z,1032.67
2023-01-23T06:14:54.058Z,1032.70
2023-01-23T06:15:54.062Z,1032.70
2023-01-23T06:16:54.039Z,1032.68
2023-01-23T06:17:54.184Z,1032.72
2023-01-23T06:18:54.009Z,1032.75
2023-01-23T06:19:53.992Z,1032.79
2023-01-23T06:20:53.980Z,1032.77
2023-01-23T06:21:53.995Z,1032.91
2023-01-23T06:22:53.965Z,1032.94
2023-01-23T06:23:53.963Z,1032.81
2023-01-23T06:24:53.935Z,1032.83
2023-01-23T06:25:53.928Z,1032.82
2023-01-23T06:26:53.912Z,1032.76
2023-01-23T06:27:55.073Z,1032.91
2023-01-23T06:28:53.894Z,1032.77
2023-01-23T06:29:53.879Z,1032.84
2023-01-23T06:30:53.974Z,1032.81
2023-01-23T06:31:53.957Z,1032.84
2023-01-23T06:32:53.848Z,1032.83
2023-01-23T06:33:53.953Z,1032.83
2023-01-23T06:34:53.833Z,1032.85
2023-01-23T06:35:53.811Z,1032.80
2023-01-23T06:36:53.797Z,1032.81
2023-01-23T06:37:53.791Z,1032.94
2023-01-23T06:38:53.774Z,1032.87
2023-01-23T06:39:53.763Z,1032.87
2023-01-23T06:40:53.760Z,1032.89
2023-01-23T06:41:53.747Z,1032.98
2023-01-23T06:42:53.731Z,1032.92
2023-01-23T06:43:53.727Z,1032.94
2023-01-23T06:44:53.708Z,1032.97
2023-01-23T06:45:53.714Z,1032.98
2023-01-23T06:46:53.712Z,1032.98
2023-01-23T06:47:53.674Z,1033.03
2023-01-23T06:48:53.663Z,1033.00
2023-01-23T06:49:53.673Z,1033.17
2023-01-23T06:50:53.698Z,1033.07
2023-01-23T06:51:53.630Z,1033.05
2023-01-23T06:52:53.633Z,1033.10
2023-01-23T06:53:53.609Z,1033.07
2023-01-23T06:54:53.593Z,1033.07
2023-01-23T06:55:53.621Z,1033.06
2023-01-23T06:56:53.573Z,1033.05
2023-01-23T06:57:53.564Z,1033.06
2023-01-23T06:58:53.562Z,1033.07
2023-01-23T06:59:53.539Z,1033.06
2023-01-23T07:00:53.525Z,1033.07
2023-01-23T07:01:53.578Z,1033.06
2023-01-23T07:02:53.574Z,1033.11
2023-01-23T07:03:53.497Z,1033.13
2023-01-23T07:04:53.501Z,1033.12
2023-01-23T07:05:53.582Z,1033.14
2023-01-23T07:06:53.457Z,1033.14
2023-01-23T07:07:53.452Z,1033.17
2023-01-23T07:08:53.435Z,1033.20
2023-01-23T07:09:53.426Z,1033.20
2023-01-23T07:10:53.415Z,1033.22
2023-01-23T07:11:53.403Z,1033.20
2023-01-23T07:12:53.390Z,1033.22
2023-01-23T07:13:53.378Z,1033.20
2023-01-23T07:14:53.380Z,1033.18
2023-01-23T07:15:53.384Z,1033.17
2023-01-23T07:16:53.348Z,1033.18
2023-01-23T07:17:53.331Z,1033.17
2023-01-23T07:18:53.319Z,1033.19
2023-01-23T07:19:53.307Z,1033.19
2023-01-23T07:20:53.295Z,1033.23
2023-01-23T07:21:53.407Z,1033.22
2023-01-23T07:22:53.280Z,1033.27
2023-01-23T07:23:53.265Z,1033.24
2023-01-23T07:24:53.254Z,1033.30
2023-01-23T07:25:53.238Z,1033.28
2023-01-23T07:26:53.228Z,1033.30
2023-01-23T07:27:53.217Z,1033.27
2023-01-23T07:28:53.244Z,1033.30
2023-01-23T07:29:53.194Z,1033.27
2023-01-23T07:30:53.331Z,1033.29
2023-01-23T07:31:53.265Z,1033.28
2023-01-23T07:32:53.164Z,1033.29
2023-01-23T07:33:53.147Z,1033.38
2023-01-23T07:34:53.175Z,1033.34
2023-01-23T07:35:53.125Z,1033.35
2023-01-23T07:36:53.116Z,1033.30
2023-01-23T07:37:53.218Z,1033.29
2023-01-23T07:38:53.097Z,1033.32
2023-01-23T07:39:53.080Z,1033.32
2023-01-23T07:40:53.082Z,1033.30
2023-01-23T07:41:53.057Z,1033.24
2023-01-23T07:42:53.050Z,1033.26
2023-01-23T07:43:53.036Z,1033.21
2023-01-23T07:44:53.025Z,1033.26
2023-01-23T07:45:53.014Z,1033.34
2023-01-23T07:46:53.055Z,1033.29
2023-01-23T07:47:52.989Z,1033.34
2023-01-23T07:48:52.987Z,1033.32
2023-01-23T07:49:52.979Z,1033.32
2023-01-23T07:50:53.074Z,1033.30
2023-01-23T07:51:52.947Z,1033.32
2023-01-23T07:52:53.507Z,1033.28
2023-01-23T07:53:53.040Z,1033.33
2023-01-23T07:54:52.909Z,1033.28
2023-01-23T07:55:52.896Z,1033.31
2023-01-23T07:56:52.889Z,1033.30
2023-01-23T07:57:52.881Z,1033.29
2023-01-23T07:58:52.871Z,1033.31
2023-01-23T07:59:52.854Z,1033.31
2023-01-23T08:00:52.900Z,1033.36
2023-01-23T08:01:52.828Z,1033.34
2023-01-23T08:02:52.818Z,1033.34
2023-01-23T08:03:52.879Z,1033.34
2023-01-23T08:04:52.799Z,1033.32
2023-01-23T08:05:52.783Z,1033.43
2023-01-23T08:06:52.771Z,1033.38
2023-01-23T08:08:07.397Z,1033.42
2023-01-23T08:08:53.745Z,1033.34
2023-01-23T08:09:52.863Z,1033.35
2023-01-23T08:10:52.733Z,1033.38
2023-01-23T08:11:52.717Z,1033.36
2023-01-23T08:12:52.703Z,1033.41
2023-01-23T08:13:52.694Z,1033.41
2023-01-23T08:14:52.687Z,1033.42
2023-01-23T08:15:52.671Z,1033.42
2023-01-23T08:16:52.666Z,1033.34
2023-01-23T08:17:52.647Z,1033.39
2023-01-23T08:18:52.634Z,1033.38
2023-01-23T08:19:52.631Z,1033.41
2023-01-23T08:20:52.611Z,1033.43
2023-01-23T08:21:52.602Z,1033.47
2023-01-23T08:22:52.599Z,1033.55
2023-01-23T08:23:52.577Z,1033.50
2023-01-23T08:24:52.565Z,1033.63
2023-01-23T08:25:52.667Z,1033.65
2023-01-23T08:26:52.545Z,1033.63
2023-01-23T08:27:52.547Z,1033.64
2023-01-23T08:28:52.531Z,1033.66
2023-01-23T08:29:52.518Z,1033.64
2023-01-23T08:30:52.537Z,1033.63
2023-01-23T08:31:52.524Z,1033.60
2023-01-23T08:32:52.491Z,1033.65
2023-01-23T08:33:52.466Z,1033.67
2023-01-23T08:34:52.464Z,1033.60
2023-01-23T08:35:52.441Z,1033.68
2023-01-23T08:36:52.462Z,1033.68
2023-01-23T08:37:52.426Z,1033.70
2023-01-23T08:38:52.410Z,1033.69
2023-01-23T08:39:52.398Z,1033.79
2023-01-23T08:40:52.401Z,1033.81
2023-01-23T08:41:52.496Z,1033.79
2023-01-23T08:42:52.359Z,1033.85
2023-01-23T08:43:52.356Z,1033.81
2023-01-23T08:44:52.338Z,1033.80
2023-01-23T08:45:52.364Z,1033.86
2023-01-23T08:46:52.333Z,1033.84
2023-01-23T08:47:52.302Z,1033.91
2023-01-23T08:48:52.294Z,1033.89
2023-01-23T08:49:52.282Z,1033.93
2023-01-23T08:50:52.328Z,1033.95
2023-01-23T08:51:52.279Z,1033.94
2023-01-23T08:52:52.419Z,1033.99
2023-01-23T08:53:52.239Z,1033.98
2023-01-23T08:54:52.222Z,1034.00
2023-01-23T08:55:52.216Z,1033.99
2023-01-23T08:56:52.201Z,1034.03
2023-01-23T08:57:52.208Z,1034.03
2023-01-23T08:58:52.186Z,1034.00
2023-01-23T08:59:52.168Z,1034.00
2023-01-23T09:00:52.164Z,1033.95
2023-01-23T09:01:52.216Z,1033.99
2023-01-23T09:02:52.132Z,1034.07
2023-01-23T09:03:52.126Z,1034.04
2023-01-23T09:04:52.118Z,1034.10
2023-01-23T09:05:52.107Z,1034.12
2023-01-23T09:06:52.090Z,1034.14
2023-01-23T09:07:52.080Z,1034.13
2023-01-23T09:08:52.092Z,1034.12
2023-01-23T09:09:52.055Z,1034.16
2023-01-23T09:10:52.058Z,1034.20
2023-01-23T09:11:52.048Z,1034.17
2023-01-23T09:12:52.017Z,1034.25
2023-01-23T09:13:53.963Z,1034.26
2023-01-23T09:14:51.998Z,1034.27
2023-01-23T09:15:51.986Z,1034.31
2023-01-23T09:16:52.121Z,1034.31
2023-01-23T09:17:51.962Z,1034.29
2023-01-23T09:18:51.972Z,1034.31
2023-01-23T09:19:51.937Z,1034.27
2023-01-23T09:20:51.928Z,1034.27
2023-01-23T09:21:51.919Z,1034.31
2023-01-23T09:22:51.911Z,1034.30
2023-01-23T09:23:51.893Z,1034.31
2023-01-23T09:24:51.880Z,1034.38
2023-01-23T09:25:51.869Z,1034.35
2023-01-23T09:26:51.860Z,1034.33
2023-01-23T09:27:51.854Z,1034.42
2023-01-23T09:28:51.845Z,1034.38
2023-01-23T09:29:51.939Z,1034.38
2023-01-23T09:30:51.818Z,1034.44
2023-01-23T09:31:51.877Z,1034.42
2023-01-23T09:32:51.790Z,1034.47
2023-01-23T09:33:51.782Z,1034.46
2023-01-23T09:34:51.774Z,1034.49
2023-01-23T09:35:51.755Z,1034.55
2023-01-23T09:36:51.745Z,1034.53
2023-01-23T09:37:58.461Z,1034.56
2023-01-23T09:38:52.720Z,1034.58
2023-01-23T09:39:51.709Z,1034.56
2023-01-23T09:40:51.704Z,1034.57
2023-01-23T09:41:51.687Z,1034.54
2023-01-23T09:42:51.691Z,1034.57
2023-01-23T09:43:51.667Z,1034.57
2023-01-23T09:44:51.659Z,1034.51
2023-01-23T09:45:51.771Z,1034.51
2023-01-23T09:46:51.634Z,1034.50
2023-01-23T09:47:53.356Z,1034.51
2023-01-23T09:48:51.610Z,1034.49
2023-01-23T09:49:51.596Z,1034.47
2023-01-23T09:50:51.617Z,1034.44
2023-01-23T09:51:51.574Z,1034.43
2023-01-23T09:52:51.567Z,1034.41
2023-01-23T09:53:51.553Z,1034.43
2023-01-23T09:54:51.545Z,1034.47
2023-01-23T09:55:51.527Z,1034.48
2023-01-23T09:56:51.543Z,1034.53
2023-01-23T09:57:51.504Z,1034.50
2023-01-23T09:58:51.517Z,1034.55
2023-01-23T10:00:00.344Z,1034.57
2023-01-23T10:00:52.495Z,1034.51
2023-01-23T10:01:51.638Z,1034.53
2023-01-23T10:02:51.566Z,1034.51
2023-01-23T10:03:51.435Z,1034.50
2023-01-23T10:04:51.430Z,1034.44
2023-01-23T10:05:51.415Z,1034.58
2023-01-23T10:06:51.400Z,1034.55
2023-01-23T10:07:51.401Z,1034.55
2023-01-23T10:08:51.378Z,1034.55
2023-01-23T10:09:51.372Z,1034.56
2023-01-23T10:10:51.362Z,1034.57
2023-01-23T10:11:51.344Z,1034.58
2023-01-23T10:12:51.339Z,1034.64
2023-01-23T10:13:51.324Z,1034.57
2023-01-23T10:14:51.310Z,1034.63
2023-01-23T10:15:53.654Z,1034.65
2023-01-23T10:16:51.418Z,1034.63
2023-01-23T10:17:51.387Z,1034.55
2023-01-23T10:18:51.264Z,1034.52
2023-01-23T10:19:51.251Z,1034.50
2023-01-23T10:20:51.246Z,1034.52
2023-01-23T10:21:51.239Z,1034.64
2023-01-23T10:22:51.228Z,1034.67
2023-01-23T10:23:51.209Z,1034.57
2023-01-23T10:24:51.198Z,1034.59
2023-01-23T10:25:51.186Z,1034.60
2023-01-23T10:26:51.174Z,1034.67
2023-01-23T10:27:51.162Z,1034.67
2023-01-23T10:28:51.158Z,1034.70
2023-01-23T10:29:51.165Z,1034.60
2023-01-23T10:30:51.247Z,1034.57
2023-01-23T10:31:51.208Z,1034.71
2023-01-23T10:32:51.118Z,1034.62
2023-01-23T10:33:51.211Z,1034.61
2023-01-23T10:34:51.089Z,1034.61
2023-01-23T10:35:51.068Z,1034.66
2023-01-23T10:36:54.752Z,1034.73
2023-01-23T10:37:51.050Z,1034.76
2023-01-23T10:38:51.053Z,1034.75
2023-01-23T10:39:51.037Z,1034.68
2023-01-23T10:40:51.020Z,1034.71
2023-01-23T10:41:54.344Z,1034.79
2023-01-23T10:42:51.992Z,1034.70
2023-01-23T10:43:50.990Z,1034.70
2023-01-23T10:44:50.977Z,1034.79
2023-01-23T10:45:50.966Z,1034.73
2023-01-23T10:46:53.821Z,1034.71
2023-01-23T10:47:55.072Z,1034.68
2023-01-23T10:48:50.937Z,1034.73
2023-01-23T10:49:51.034Z,1034.67
2023-01-23T10:50:50.925Z,1034.69
2023-01-23T10:51:50.892Z,1034.62
2023-01-23T10:52:50.881Z,1034.63
2023-01-23T10:53:50.864Z,1034.64
2023-01-23T10:54:50.855Z,1034.58
2023-01-23T10:55:50.849Z,1034.57
2023-01-23T10:56:50.859Z,1034.58
2023-01-23T10:57:50.819Z,1034.59
2023-01-23T10:58:50.812Z,1034.60
2023-01-23T10:59:50.808Z,1034.58
2023-01-23T11:00:50.791Z,1034.56
2023-01-23T11:01:57.283Z,1034.58
2023-01-23T11:02:51.795Z,1034.55
2023-01-23T11:03:50.749Z,1034.58
2023-01-23T11:04:50.790Z,1034.54
2023-01-23T11:05:53.122Z,1034.60
2023-01-23T11:06:50.715Z,1034.55
2023-01-23T11:07:50.705Z,1034.57
2023-01-23T11:08:50.696Z,1034.56
2023-01-23T11:09:50.683Z,1034.57
2023-01-23T11:10:50.677Z,1034.54
2023-01-23T11:11:50.662Z,1034.54
2023-01-23T11:12:50.654Z,1034.66
2023-01-23T11:13:50.639Z,1034.57
2023-01-23T11:14:50.628Z,1034.59
2023-01-23T11:15:50.645Z,1034.55
2023-01-23T11:16:50.609Z,1034.60
2023-01-23T11:17:50.591Z,1034.57
2023-01-23T11:18:50.579Z,1034.54
2023-01-23T11:19:50.571Z,1034.52
2023-01-23T11:20:50.587Z,1034.46
2023-01-23T11:21:50.667Z,1034.47
2023-01-23T11:22:50.538Z,1034.43
2023-01-23T11:23:50.522Z,1034.43
2023-01-23T11:24:50.519Z,1034.43
2023-01-23T11:25:50.501Z,1034.38
2023-01-23T11:26:50.487Z,1034.41
2023-01-23T11:27:50.482Z,1034.49
2023-01-23T11:28:50.471Z,1034.41
2023-01-23T11:29:50.454Z,1034.48
2023-01-23T11:30:54.238Z,1034.42
2023-01-23T11:31:51.528Z,1034.47
2023-01-23T11:32:50.421Z,1034.39
2023-01-23T11:33:50.410Z,1034.45
2023-01-23T11:34:50.409Z,1034.44
2023-01-23T11:35:50.385Z,1034.41
2023-01-23T11:36:50.373Z,1034.42
2023-01-23T11:37:50.475Z,1034.45
2023-01-23T11:38:52.728Z,1034.45
2023-01-23T11:39:50.342Z,1034.40
2023-01-23T11:40:50.338Z,1034.42
2023-01-23T11:41:50.327Z,1034.40
2023-01-23T11:42:50.303Z,1034.39
2023-01-23T11:43:50.297Z,1034.37
2023-01-23T11:44:50.283Z,1034.41
2023-01-23T11:45:50.302Z,1034.37
2023-01-23T11:46:50.266Z,1034.35
2023-01-23T11:47:50.258Z,1034.33
2023-01-23T11:48:50.238Z,1034.33
2023-01-23T11:49:51.391Z,1034.40
2023-01-23T11:50:55.303Z,1034.37
2023-01-23T11:51:51.207Z,1034.35
2023-01-23T11:52:50.193Z,1034.37
2023-01-23T11:53:50.325Z,1034.35
2023-01-23T11:54:50.199Z,1034.40
2023-01-23T11:55:50.443Z,1034.33
2023-01-23T11:56:50.145Z,1034.37
2023-01-23T11:57:50.154Z,1034.38
2023-01-23T11:58:50.600Z,1034.35
2023-01-23T11:59:50.112Z,1034.42
2023-01-23T12:00:50.102Z,1034.33
2023-01-23T12:02:02.557Z,1034.28
2023-01-23T12:02:51.163Z,1034.24
2023-01-23T12:03:50.201Z,1034.25
2023-01-23T12:04:50.143Z,1034.27
2023-01-23T12:05:50.046Z,1034.22